Flight Track Log - Related Links

Times and Time Zones

All times are in EDT time to prevent confusion due to time zone crossing. See the GGA1 flight status page for this flight to view local times or setup timezone preferences in your user account.

Time Position Orientation Groundspeed Altitude Reporting Facility
EDT Latitude Longitude Course Direction KTS MPH feet Rate Location/Type
Fri 05:32:52 PM 33.9500 -83.3000 151° Southeast 131 151 1,700  Level Atlanta TRACON
Fri 05:34:33 PM 33.8817 -83.2731 162° South 145 167 5,000 1,975 Climbing Atlanta Center
Fri 05:35:33 PM 33.8375 -83.2436 151° Southeast 163 188 7,000 1,950 Climbing Atlanta Center
Fri 05:36:33 PM 33.8019 -83.2014 135° Southeast 175 201 8,900 1,850 Climbing Atlanta Center
Fri 05:37:33 PM 33.7703 -83.1542 129° Southeast 180 207 10,700 1,800 Climbing Atlanta Center
Fri 05:38:00 PM 33.6757 -83.1311 151° Southeast  Level Estimated
Fri 05:38:33 PM 33.7200 -83.1247 154° Southeast 185 213 12,500  Level Atlanta Center
Fri 05:39:33 PM 33.6717 -83.0953 153° Southeast 201 231 14,400 1,850 Climbing Atlanta Center
Fri 05:40:33 PM 33.6211 -83.0583 149° Southeast 201 231 16,200 2,300 Climbing Atlanta Center
Fri 05:41:33 PM 33.5708 -83.0242 150° Southeast 207 238 19,000 1,350 Climbing Atlanta Center
Fri 05:42:33 PM 33.5183 -82.9847 148° Southeast 213 245 18,900  Descending Atlanta Center
Fri 05:43:33 PM 33.4597 -82.9506 154° Southeast 233 268 19,000 50 Climbing Atlanta Center
Fri 05:44:33 PM 33.3967 -82.9042 148° Southeast 257 296 19,000  Level Atlanta Center
Fri 05:45:33 PM 33.3272 -82.8578 151° Southeast 277 319 19,000  Level Atlanta Center
Fri 05:46:33 PM 33.2600 -82.8067 148° Southeast 277 319 19,000  Level Atlanta Center
Fri 05:47:33 PM 33.1928 -82.7606 150° Southeast 282 325 19,000  Level Atlanta Center
Fri 05:48:33 PM 33.1233 -82.7119 150° Southeast 282 325 19,000  Level Atlanta Center
Fri 05:49:33 PM 33.0539 -82.6683 152° Southeast 287 330 19,000  Level Atlanta Center
Fri 05:50:33 PM 32.9844 -82.6175 148° Southeast 287 330 19,000  Level Atlanta Center
Fri 05:51:33 PM 32.9150 -82.5739 152° Southeast 287 330 19,000  Level Atlanta Center
Fri 05:52:33 PM 32.8478 -82.5231 148° Southeast 287 330 19,000  Level Atlanta Center
Fri 05:53:33 PM 32.7783 -82.4775 151° Southeast 287 330 19,000  Level Atlanta Center
Fri 05:54:33 PM 32.7108 -82.4317 150° Southeast 287 330 19,000  Level Atlanta Center
Fri 05:55:33 PM 32.6414 -82.3861 151° Southeast 287 330 19,000  Level Atlanta Center
Fri 05:56:33 PM 32.5675 -82.3333 149° Southeast 287 330 19,000  Level Atlanta Center
Fri 05:57:33 PM 32.5042 -82.2803 145° Southeast 287 330 19,000  Level Atlanta Center
Fri 05:59:18 PM 32.3881 -82.1914 147° Southeast 288 331 19,000  Level Jacksonville Center
Fri 06:00:18 PM 32.3272 -82.1453 147° Southeast 282 325 19,000  Level Jacksonville Center
Fri 06:01:18 PM 32.2558 -82.0892 146° Southeast 282 325 19,000  Level Jacksonville Center
Fri 06:02:18 PM 32.1950 -82.0308 141° Southeast 282 325 19,000  Level Jacksonville Center
Fri 06:03:18 PM 32.1342 -81.9922 152° Southeast 282 325 19,000 -50 Level Jacksonville Center
Fri 06:04:18 PM 32.0564 -81.9439 152° Southeast 287 330 18,900 -650 Descending Jacksonville Center
Fri 06:05:18 PM 31.9872 -81.9056 155° Southeast 292 336 17,700 -1,350 Descending Jacksonville Center
Fri 06:06:18 PM 31.9158 -81.8547 149° Southeast 286 329 16,200 -1,400 Descending Jacksonville Center
Fri 06:07:18 PM 31.8508 -81.8164 153° Southeast 260 299 14,900 -1,350 Descending Jacksonville Center
Fri 06:08:18 PM 31.7983 -81.7853 153° Southeast 247 284 13,500 -1,500 Descending Jacksonville Center
Fri 06:09:18 PM 31.7333 -81.7444 152° Southeast 237 273 11,900 -1,250 Descending Jacksonville Center
Fri 06:10:18 PM 31.6808 -81.7158 155° Southeast 237 273 11,000 -450 Descending Jacksonville Center
Fri 06:11:18 PM 31.6200 -81.6825 155° Southeast 232 267 11,000  Level Jacksonville Center
Fri 06:12:18 PM 31.5656 -81.6564 158° South 213 245 11,000 -500 Level Jacksonville Center
Fri 06:13:18 PM 31.5089 -81.6400 166° South 208 239 10,000 -950 Descending Jacksonville Center
Fri 06:14:18 PM 31.4567 -81.6214 163° South 208 239 9,100 -500 Descending Jacksonville Center
Fri 06:15:18 PM 31.4083 -81.6025 162° South 198 228 9,000 -100 Descending Jacksonville Center
Fri 06:16:18 PM 31.3581 -81.5836 162° South 198 228 8,900 -600 Descending Jacksonville Center
Fri 06:17:18 PM 31.3094 -81.5333 139° Southeast 204 235 7,800 -950 Descending Jacksonville Center
Fri 06:18:18 PM 31.2736 -81.4875 132° Southeast 204 235 7,000 -400 Descending Jacksonville Center
Fri 06:19:18 PM 31.2375 -81.4444 134° Southeast 198 228 7,000  Level Jacksonville Center
Fri 06:20:18 PM 31.2014 -81.4014 134° Southeast 193 222 7,000 -200 Level Jacksonville Center
Fri 06:21:18 PM 31.1633 -81.3606 137° Southeast 179 206 6,600 -400 Descending Jacksonville Center

Login

Don't have an account? Register now (free) for customized features, flight alerts, and more!